sensor_id;sensor_type;location;lat;lon;timestamp;temperature;humidity
22607;DHT22;11470;20.968;105.834;2023-04-15T00:01:25;23.80;99.90
22607;DHT22;11470;20.968;105.834;2023-04-15T00:06:31;23.90;99.90
22607;DHT22;11470;20.968;105.834;2023-04-15T00:11:37;23.90;99.90
22607;DHT22;11470;20.968;105.834;2023-04-15T00:16:42;24.00;99.90
22607;DHT22;11470;20.968;105.834;2023-04-15T00:21:48;24.00;99.90
22607;DHT22;11470;20.968;105.834;2023-04-15T00:26:53;24.10;99.90
22607;DHT22;11470;20.968;105.834;2023-04-15T00:31:59;24.10;99.90
22607;DHT22;11470;20.968;105.834;2023-04-15T00:37:04;24.10;99.90
22607;DHT22;11470;20.968;105.834;2023-04-15T00:42:11;24.10;99.90
22607;DHT22;11470;20.968;105.834;2023-04-15T00:47:17;24.10;99.90
22607;DHT22;11470;20.968;105.834;2023-04-15T00:52:24;24.10;99.90
22607;DHT22;11470;20.968;105.834;2023-04-15T00:57:29;24.10;99.90
22607;DHT22;11470;20.968;105.834;2023-04-15T01:02:35;24.20;99.90
22607;DHT22;11470;20.968;105.834;2023-04-15T01:07:41;24.20;99.90
22607;DHT22;11470;20.968;105.834;2023-04-15T01:12:47;24.30;99.90
22607;DHT22;11470;20.968;105.834;2023-04-15T01:17:52;24.40;99.90
22607;DHT22;11470;20.968;105.834;2023-04-15T01:22:58;24.80;99.90
22607;DHT22;11470;20.968;105.834;2023-04-15T01:28:04;24.90;99.90
22607;DHT22;11470;20.968;105.834;2023-04-15T01:33:10;24.90;99.90
22607;DHT22;11470;20.968;105.834;2023-04-15T01:38:15;25.00;99.90
22607;DHT22;11470;20.968;105.834;2023-04-15T01:43:22;25.10;99.90
22607;DHT22;11470;20.968;105.834;2023-04-15T01:48:27;25.20;99.90
22607;DHT22;11470;20.968;105.834;2023-04-15T01:53:33;25.40;99.90
22607;DHT22;11470;20.968;105.834;2023-04-15T01:58:39;25.40;99.90
22607;DHT22;11470;20.968;105.834;2023-04-15T02:03:46;25.50;99.90
22607;DHT22;11470;20.968;105.834;2023-04-15T02:08:53;25.70;99.90
22607;DHT22;11470;20.968;105.834;2023-04-15T02:13:59;25.70;99.90
22607;DHT22;11470;20.968;105.834;2023-04-15T02:19:04;25.80;99.90
22607;DHT22;11470;20.968;105.834;2023-04-15T02:24:12;25.90;99.90
22607;DHT22;11470;20.968;105.834;2023-04-15T02:29:18;26.00;99.90
22607;DHT22;11470;20.968;105.834;2023-04-15T02:34:25;26.20;99.90
22607;DHT22;11470;20.968;105.834;2023-04-15T02:39:32;26.40;99.90
22607;DHT22;11470;20.968;105.834;2023-04-15T02:44:38;26.50;99.90
22607;DHT22;11470;20.968;105.834;2023-04-15T02:49:44;26.40;99.90
22607;DHT22;11470;20.968;105.834;2023-04-15T02:54:51;26.30;99.90
22607;DHT22;11470;20.968;105.834;2023-04-15T02:59:59;26.10;99.90
22607;DHT22;11470;20.968;105.834;2023-04-15T03:05:12;26.00;99.90
22607;DHT22;11470;20.968;105.834;2023-04-15T03:10:24;25.90;99.90
22607;DHT22;11470;20.968;105.834;2023-04-15T03:15:31;25.80;99.90
22607;DHT22;11470;20.968;105.834;2023-04-15T03:20:37;25.70;99.90
22607;DHT22;11470;20.968;105.834;2023-04-15T03:25:48;25.70;99.90
22607;DHT22;11470;20.968;105.834;2023-04-15T03:30:54;25.80;99.90
22607;DHT22;11470;20.968;105.834;2023-04-15T03:36:01;25.80;99.90
22607;DHT22;11470;20.968;105.834;2023-04-15T03:41:06;25.70;99.90
22607;DHT22;11470;20.968;105.834;2023-04-15T03:46:12;25.60;99.90
22607;DHT22;11470;20.968;105.834;2023-04-15T03:51:18;25.10;99.90
22607;DHT22;11470;20.968;105.834;2023-04-15T03:56:24;24.70;99.90
22607;DHT22;11470;20.968;105.834;2023-04-15T04:01:31;24.40;99.90
22607;DHT22;11470;20.968;105.834;2023-04-15T04:06:36;24.30;99.90
22607;DHT22;11470;20.968;105.834;2023-04-15T04:11:42;24.30;99.90
22607;DHT22;11470;20.968;105.834;2023-04-15T04:16:49;24.30;99.90
22607;DHT22;11470;20.968;105.834;2023-04-15T04:21:54;24.30;99.90
22607;DHT22;11470;20.968;105.834;2023-04-15T04:27:00;24.30;99.90
22607;DHT22;11470;20.968;105.834;2023-04-15T04:32:06;24.30;99.90
22607;DHT22;11470;20.968;105.834;2023-04-15T04:37:12;24.40;99.90
22607;DHT22;11470;20.968;105.834;2023-04-15T04:42:18;24.50;99.90
22607;DHT22;11470;20.968;105.834;2023-04-15T04:47:24;24.60;99.90
22607;DHT22;11470;20.968;105.834;2023-04-15T04:52:30;24.70;99.90
22607;DHT22;11470;20.968;105.834;2023-04-15T04:57:35;24.70;99.90
22607;DHT22;11470;20.968;105.834;2023-04-15T05:02:43;24.70;99.90
22607;DHT22;11470;20.968;105.834;2023-04-15T05:07:49;24.90;99.90
22607;DHT22;11470;20.968;105.834;2023-04-15T05:12:55;25.00;99.90
22607;DHT22;11470;20.968;105.834;2023-04-15T05:18:00;25.10;99.90
22607;DHT22;11470;20.968;105.834;2023-04-15T05:23:06;25.40;99.90
22607;DHT22;11470;20.968;105.834;2023-04-15T05:28:11;25.70;99.90
22607;DHT22;11470;20.968;105.834;2023-04-15T05:33:17;26.00;99.90
22607;DHT22;11470;20.968;105.834;2023-04-15T05:38:22;26.50;99.90
22607;DHT22;11470;20.968;105.834;2023-04-15T05:43:28;26.70;99.90
22607;DHT22;11470;20.968;105.834;2023-04-15T05:48:36;26.60;99.90
22607;DHT22;11470;20.968;105.834;2023-04-15T05:53:42;26.40;99.90
22607;DHT22;11470;20.968;105.834;2023-04-15T05:58:51;26.10;99.90
22607;DHT22;11470;20.968;105.834;2023-04-15T06:03:57;25.90;99.90
22607;DHT22;11470;20.968;105.834;2023-04-15T06:09:03;25.90;99.90
22607;DHT22;11470;20.968;105.834;2023-04-15T06:14:09;26.00;99.90
22607;DHT22;11470;20.968;105.834;2023-04-15T06:19:15;26.10;99.90
22607;DHT22;11470;20.968;105.834;2023-04-15T06:24:22;26.50;99.90
22607;DHT22;11470;20.968;105.834;2023-04-15T06:29:27;27.10;99.90
22607;DHT22;11470;20.968;105.834;2023-04-15T06:34:33;27.80;99.90
22607;DHT22;11470;20.968;105.834;2023-04-15T06:39:38;28.20;99.90
22607;DHT22;11470;20.968;105.834;2023-04-15T06:44:44;29.00;99.90
22607;DHT22;11470;20.968;105.834;2023-04-15T06:49:51;29.90;99.90
22607;DHT22;11470;20.968;105.834;2023-04-15T06:54:56;30.20;99.90
22607;DHT22;11470;20.968;105.834;2023-04-15T07:00:06;29.70;99.90
22607;DHT22;11470;20.968;105.834;2023-04-15T07:05:12;29.30;99.90
22607;DHT22;11470;20.968;105.834;2023-04-15T07:10:18;29.10;99.90
22607;DHT22;11470;20.968;105.834;2023-04-15T07:15:26;29.00;99.90
22607;DHT22;11470;20.968;105.834;2023-04-15T07:20:32;28.80;99.90
22607;DHT22;11470;20.968;105.834;2023-04-15T07:25:41;28.30;99.90
22607;DHT22;11470;20.968;105.834;2023-04-15T07:30:48;29.60;99.90
22607;DHT22;11470;20.968;105.834;2023-04-15T07:35:57;31.70;99.90
22607;DHT22;11470;20.968;105.834;2023-04-15T07:41:04;31.80;99.90
22607;DHT22;11470;20.968;105.834;2023-04-15T07:46:10;31.20;99.90
22607;DHT22;11470;20.968;105.834;2023-04-15T07:51:16;30.00;99.90
22607;DHT22;11470;20.968;105.834;2023-04-15T07:56:21;28.90;99.90
22607;DHT22;11470;20.968;105.834;2023-04-15T08:01:27;28.30;99.90
22607;DHT22;11470;20.968;105.834;2023-04-15T08:06:32;28.20;99.90
22607;DHT22;11470;20.968;105.834;2023-04-15T08:11:38;28.50;99.90
22607;DHT22;11470;20.968;105.834;2023-04-15T08:16:43;29.40;99.90
22607;DHT22;11470;20.968;105.834;2023-04-15T08:21:50;30.00;99.90
22607;DHT22;11470;20.968;105.834;2023-04-15T08:26:57;30.30;99.90
22607;DHT22;11470;20.968;105.834;2023-04-15T08:32:06;30.90;99.90
22607;DHT22;11470;20.968;105.834;2023-04-15T08:37:14;30.90;99.90
22607;DHT22;11470;20.968;105.834;2023-04-15T08:42:27;30.60;99.90
22607;DHT22;11470;20.968;105.834;2023-04-15T08:47:36;30.60;99.90
22607;DHT22;11470;20.968;105.834;2023-04-15T08:52:45;30.90;99.90
22607;DHT22;11470;20.968;105.834;2023-04-15T08:57:52;30.90;99.90
22607;DHT22;11470;20.968;105.834;2023-04-15T09:02:58;30.60;99.90
22607;DHT22;11470;20.968;105.834;2023-04-15T09:08:05;30.50;99.90
22607;DHT22;11470;20.968;105.834;2023-04-15T09:13:11;30.40;99.90
22607;DHT22;11470;20.968;105.834;2023-04-15T09:18:29;30.10;99.90
22607;DHT22;11470;20.968;105.834;2023-04-15T09:23:39;29.90;99.90
22607;DHT22;11470;20.968;105.834;2023-04-15T09:28:45;29.90;99.90
22607;DHT22;11470;20.968;105.834;2023-04-15T09:33:55;29.60;99.90
22607;DHT22;11470;20.968;105.834;2023-04-15T09:39:04;29.20;99.90
22607;DHT22;11470;20.968;105.834;2023-04-15T09:44:22;29.00;99.90
22607;DHT22;11470;20.968;105.834;2023-04-15T09:49:31;28.70;99.90
22607;DHT22;11470;20.968;105.834;2023-04-15T09:54:37;28.40;99.90
22607;DHT22;11470;20.968;105.834;2023-04-15T09:59:43;28.20;99.90
22607;DHT22;11470;20.968;105.834;2023-04-15T10:04:48;28.20;99.90
22607;DHT22;11470;20.968;105.834;2023-04-15T10:09:56;28.10;99.90
22607;DHT22;11470;20.968;105.834;2023-04-15T10:15:05;28.00;99.90
22607;DHT22;11470;20.968;105.834;2023-04-15T10:20:11;27.80;99.90
22607;DHT22;11470;20.968;105.834;2023-04-15T10:25:18;27.70;99.90
22607;DHT22;11470;20.968;105.834;2023-04-15T10:30:24;27.50;99.90
22607;DHT22;11470;20.968;105.834;2023-04-15T10:35:31;27.30;99.90
22607;DHT22;11470;20.968;105.834;2023-04-15T10:40:38;27.20;99.90
22607;DHT22;11470;20.968;105.834;2023-04-15T10:45:44;27.00;99.90
22607;DHT22;11470;20.968;105.834;2023-04-15T10:50:59;26.80;99.90
22607;DHT22;11470;20.968;105.834;2023-04-15T10:56:06;26.60;99.90
22607;DHT22;11470;20.968;105.834;2023-04-15T11:01:12;26.50;99.90
22607;DHT22;11470;20.968;105.834;2023-04-15T11:06:17;26.30;99.90
22607;DHT22;11470;20.968;105.834;2023-04-15T11:17:07;26.20;99.90
22607;DHT22;11470;20.968;105.834;2023-04-15T11:22:15;26.10;99.90
22607;DHT22;11470;20.968;105.834;2023-04-15T11:27:22;26.00;99.90
22607;DHT22;11470;20.968;105.834;2023-04-15T11:32:27;25.90;99.90
22607;DHT22;11470;20.968;105.834;2023-04-15T11:37:33;25.90;99.90
22607;DHT22;11470;20.968;105.834;2023-04-15T11:42:38;25.80;99.90
22607;DHT22;11470;20.968;105.834;2023-04-15T11:48:13;25.90;99.90
22607;DHT22;11470;20.968;105.834;2023-04-15T11:53:17;25.80;99.90
22607;DHT22;11470;20.968;105.834;2023-04-15T11:58:24;25.70;99.90
22607;DHT22;11470;20.968;105.834;2023-04-15T12:03:41;25.60;99.90
22607;DHT22;11470;20.968;105.834;2023-04-15T12:09:06;25.70;99.90
22607;DHT22;11470;20.968;105.834;2023-04-15T12:19:40;25.70;99.90
22607;DHT22;11470;20.968;105.834;2023-04-15T12:24:57;25.70;99.90
22607;DHT22;11470;20.968;105.834;2023-04-15T12:30:07;25.70;99.90
22607;DHT22;11470;20.968;105.834;2023-04-15T12:35:12;25.50;99.90
22607;DHT22;11470;20.968;105.834;2023-04-15T12:40:21;25.40;99.90
22607;DHT22;11470;20.968;105.834;2023-04-15T12:45:32;25.30;99.90
22607;DHT22;11470;20.968;105.834;2023-04-15T12:50:38;25.20;99.90
22607;DHT22;11470;20.968;105.834;2023-04-15T13:01:38;25.20;99.90
22607;DHT22;11470;20.968;105.834;2023-04-15T13:06:47;25.10;99.90
22607;DHT22;11470;20.968;105.834;2023-04-15T13:11:53;25.10;99.90
22607;DHT22;11470;20.968;105.834;2023-04-15T13:17:03;25.00;99.90
22607;DHT22;11470;20.968;105.834;2023-04-15T13:22:14;25.00;99.90
22607;DHT22;11470;20.968;105.834;2023-04-15T13:27:19;25.00;99.90
22607;DHT22;11470;20.968;105.834;2023-04-15T13:32:26;25.00;99.90
22607;DHT22;11470;20.968;105.834;2023-04-15T13:37:31;25.00;99.90
22607;DHT22;11470;20.968;105.834;2023-04-15T13:42:37;25.00;99.90
22607;DHT22;11470;20.968;105.834;2023-04-15T13:47:42;24.90;99.90
22607;DHT22;11470;20.968;105.834;2023-04-15T13:52:48;24.90;99.90
22607;DHT22;11470;20.968;105.834;2023-04-15T13:58:32;25.00;99.90
22607;DHT22;11470;20.968;105.834;2023-04-15T14:03:46;25.00;99.90
22607;DHT22;11470;20.968;105.834;2023-04-15T14:08:57;24.90;99.90
22607;DHT22;11470;20.968;105.834;2023-04-15T14:14:03;24.80;99.90
22607;DHT22;11470;20.968;105.834;2023-04-15T14:19:09;24.80;99.90
22607;DHT22;11470;20.968;105.834;2023-04-15T14:24:17;24.80;99.90
22607;DHT22;11470;20.968;105.834;2023-04-15T14:29:27;24.80;99.90
22607;DHT22;11470;20.968;105.834;2023-04-15T14:34:54;24.70;99.90
22607;DHT22;11470;20.968;105.834;2023-04-15T14:40:07;24.70;99.90
22607;DHT22;11470;20.968;105.834;2023-04-15T14:45:14;24.70;99.90
22607;DHT22;11470;20.968;105.834;2023-04-15T14:50:21;24.70;99.90
22607;DHT22;11470;20.968;105.834;2023-04-15T14:55:27;24.70;99.90
22607;DHT22;11470;20.968;105.834;2023-04-15T15:00:34;24.60;99.90
22607;DHT22;11470;20.968;105.834;2023-04-15T15:05:44;24.60;99.90
22607;DHT22;11470;20.968;105.834;2023-04-15T15:10:51;24.60;99.90
22607;DHT22;11470;20.968;105.834;2023-04-15T15:16:06;24.60;99.90
22607;DHT22;11470;20.968;105.834;2023-04-15T15:21:16;24.60;99.90
22607;DHT22;11470;20.968;105.834;2023-04-15T15:26:23;24.60;99.90
22607;DHT22;11470;20.968;105.834;2023-04-15T15:31:29;24.60;99.90
22607;DHT22;11470;20.968;105.834;2023-04-15T15:36:37;24.60;99.90
22607;DHT22;11470;20.968;105.834;2023-04-15T15:41:46;24.60;99.90
22607;DHT22;11470;20.968;105.834;2023-04-15T15:46:52;24.50;99.90
22607;DHT22;11470;20.968;105.834;2023-04-15T15:51:58;24.50;99.90
22607;DHT22;11470;20.968;105.834;2023-04-15T15:57:03;24.50;99.90
22607;DHT22;11470;20.968;105.834;2023-04-15T16:02:13;24.40;99.90
22607;DHT22;11470;20.968;105.834;2023-04-15T16:07:19;24.40;99.90
22607;DHT22;11470;20.968;105.834;2023-04-15T16:12:28;24.50;99.90
22607;DHT22;11470;20.968;105.834;2023-04-15T16:17:35;24.50;99.90
22607;DHT22;11470;20.968;105.834;2023-04-15T16:22:49;24.50;99.90
22607;DHT22;11470;20.968;105.834;2023-04-15T16:27:55;24.50;99.90
22607;DHT22;11470;20.968;105.834;2023-04-15T16:33:14;24.40;99.90
22607;DHT22;11470;20.968;105.834;2023-04-15T16:38:19;24.40;99.90
22607;DHT22;11470;20.968;105.834;2023-04-15T16:43:25;24.40;99.90
22607;DHT22;11470;20.968;105.834;2023-04-15T16:48:30;24.40;99.90
22607;DHT22;11470;20.968;105.834;2023-04-15T16:53:35;24.30;99.90
22607;DHT22;11470;20.968;105.834;2023-04-15T16:58:41;24.40;99.90
22607;DHT22;11470;20.968;105.834;2023-04-15T17:03:46;24.30;99.90
22607;DHT22;11470;20.968;105.834;2023-04-15T17:08:53;24.40;99.90
22607;DHT22;11470;20.968;105.834;2023-04-15T17:13:58;24.30;99.90
22607;DHT22;11470;20.968;105.834;2023-04-15T17:19:03;24.30;99.90
22607;DHT22;11470;20.968;105.834;2023-04-15T17:24:08;24.30;99.90
22607;DHT22;11470;20.968;105.834;2023-04-15T17:29:14;24.30;99.90
22607;DHT22;11470;20.968;105.834;2023-04-15T17:34:19;24.30;99.90
22607;DHT22;11470;20.968;105.834;2023-04-15T17:39:25;24.20;99.90
22607;DHT22;11470;20.968;105.834;2023-04-15T17:44:30;24.10;99.90
22607;DHT22;11470;20.968;105.834;2023-04-15T17:49:35;24.10;99.90
22607;DHT22;11470;20.968;105.834;2023-04-15T17:54:40;24.10;99.90
22607;DHT22;11470;20.968;105.834;2023-04-15T17:59:47;24.00;99.90
22607;DHT22;11470;20.968;105.834;2023-04-15T18:04:53;23.90;99.90
22607;DHT22;11470;20.968;105.834;2023-04-15T18:10:00;23.90;99.90
22607;DHT22;11470;20.968;105.834;2023-04-15T18:15:06;23.80;99.90
22607;DHT22;11470;20.968;105.834;2023-04-15T18:20:13;23.80;99.90
22607;DHT22;11470;20.968;105.834;2023-04-15T18:25:19;23.70;99.90
22607;DHT22;11470;20.968;105.834;2023-04-15T18:30:25;23.70;99.90
22607;DHT22;11470;20.968;105.834;2023-04-15T18:35:30;23.60;99.90
22607;DHT22;11470;20.968;105.834;2023-04-15T18:40:38;23.60;99.90
22607;DHT22;11470;20.968;105.834;2023-04-15T18:45:43;23.50;99.90
22607;DHT22;11470;20.968;105.834;2023-04-15T18:50:49;23.50;99.90
22607;DHT22;11470;20.968;105.834;2023-04-15T18:55:57;23.50;99.90
22607;DHT22;11470;20.968;105.834;2023-04-15T19:01:06;23.40;99.90
22607;DHT22;11470;20.968;105.834;2023-04-15T19:06:14;23.30;99.90
22607;DHT22;11470;20.968;105.834;2023-04-15T19:11:19;23.30;99.90
22607;DHT22;11470;20.968;105.834;2023-04-15T19:16:25;23.40;99.90
22607;DHT22;11470;20.968;105.834;2023-04-15T19:21:31;23.30;99.90
22607;DHT22;11470;20.968;105.834;2023-04-15T19:26:37;23.30;99.90
22607;DHT22;11470;20.968;105.834;2023-04-15T19:31:43;23.30;99.90
22607;DHT22;11470;20.968;105.834;2023-04-15T19:36:48;23.30;99.90
22607;DHT22;11470;20.968;105.834;2023-04-15T19:41:54;23.40;99.90
22607;DHT22;11470;20.968;105.834;2023-04-15T19:47:00;23.60;99.90
22607;DHT22;11470;20.968;105.834;2023-04-15T19:52:05;23.70;99.90
22607;DHT22;11470;20.968;105.834;2023-04-15T19:57:10;23.60;99.90
22607;DHT22;11470;20.968;105.834;2023-04-15T20:02:16;23.50;99.90
22607;DHT22;11470;20.968;105.834;2023-04-15T20:07:22;23.50;99.90
22607;DHT22;11470;20.968;105.834;2023-04-15T20:12:27;23.50;99.90
22607;DHT22;11470;20.968;105.834;2023-04-15T20:17:53;23.40;99.90
22607;DHT22;11470;20.968;105.834;2023-04-15T20:22:58;23.40;99.90
22607;DHT22;11470;20.968;105.834;2023-04-15T20:28:04;23.40;99.90
22607;DHT22;11470;20.968;105.834;2023-04-15T20:33:09;23.30;99.90
22607;DHT22;11470;20.968;105.834;2023-04-15T20:38:15;23.20;99.90
22607;DHT22;11470;20.968;105.834;2023-04-15T20:43:20;23.30;99.90
22607;DHT22;11470;20.968;105.834;2023-04-15T20:48:27;23.30;99.90
22607;DHT22;11470;20.968;105.834;2023-04-15T20:53:32;23.30;99.90
22607;DHT22;11470;20.968;105.834;2023-04-15T20:58:37;23.30;99.90
22607;DHT22;11470;20.968;105.834;2023-04-15T21:03:43;23.30;99.90
22607;DHT22;11470;20.968;105.834;2023-04-15T21:08:49;23.20;99.90
22607;DHT22;11470;20.968;105.834;2023-04-15T21:13:55;23.20;99.90
22607;DHT22;11470;20.968;105.834;2023-04-15T21:19:01;23.20;99.90
22607;DHT22;11470;20.968;105.834;2023-04-15T21:24:07;23.30;99.90
22607;DHT22;11470;20.968;105.834;2023-04-15T21:29:13;23.20;99.90
22607;DHT22;11470;20.968;105.834;2023-04-15T21:34:18;23.20;99.90
22607;DHT22;11470;20.968;105.834;2023-04-15T21:39:23;23.20;99.90
22607;DHT22;11470;20.968;105.834;2023-04-15T21:44:29;23.30;99.90
22607;DHT22;11470;20.968;105.834;2023-04-15T21:49:35;23.40;99.90
22607;DHT22;11470;20.968;105.834;2023-04-15T21:54:40;23.30;99.90
22607;DHT22;11470;20.968;105.834;2023-04-15T21:59:46;23.30;99.90
22607;DHT22;11470;20.968;105.834;2023-04-15T22:04:51;23.30;99.90
22607;DHT22;11470;20.968;105.834;2023-04-15T22:09:57;23.30;99.90
22607;DHT22;11470;20.968;105.834;2023-04-15T22:15:02;23.30;99.90
22607;DHT22;11470;20.968;105.834;2023-04-15T22:20:09;23.30;99.90
22607;DHT22;11470;20.968;105.834;2023-04-15T22:25:14;23.20;99.90
22607;DHT22;11470;20.968;105.834;2023-04-15T22:30:20;23.10;99.90
22607;DHT22;11470;20.968;105.834;2023-04-15T22:35:25;23.10;99.90
22607;DHT22;11470;20.968;105.834;2023-04-15T22:40:31;23.00;99.90
22607;DHT22;11470;20.968;105.834;2023-04-15T22:45:37;23.10;99.90
22607;DHT22;11470;20.968;105.834;2023-04-15T22:50:42;23.10;99.90
22607;DHT22;11470;20.968;105.834;2023-04-15T22:55:48;23.10;99.90
22607;DHT22;11470;20.968;105.834;2023-04-15T23:00:55;23.20;99.90
22607;DHT22;11470;20.968;105.834;2023-04-15T23:06:00;23.10;99.90
22607;DHT22;11470;20.968;105.834;2023-04-15T23:11:06;23.10;99.90
22607;DHT22;11470;20.968;105.834;2023-04-15T23:16:11;23.00;99.90
22607;DHT22;11470;20.968;105.834;2023-04-15T23:21:17;23.00;99.90
22607;DHT22;11470;20.968;105.834;2023-04-15T23:26:23;23.20;99.90
22607;DHT22;11470;20.968;105.834;2023-04-15T23:31:29;23.30;99.90
22607;DHT22;11470;20.968;105.834;2023-04-15T23:36:34;23.40;99.90
22607;DHT22;11470;20.968;105.834;2023-04-15T23:41:39;23.50;99.90
22607;DHT22;11470;20.968;105.834;2023-04-15T23:46:45;23.70;99.90
22607;DHT22;11470;20.968;105.834;2023-04-15T23:51:51;23.90;99.90
22607;DHT22;11470;20.968;105.834;2023-04-15T23:56:56;24.10;99.90
